Time;durP1;ratioP1;P1;durP2;ratioP2;P2;SDS_P1;SDS_P2;PMS_P1;PMS_P2;Temp;Humidity;BMP_temperature;BMP_pressure;BME280_temperature;BME280_humidity;BME280_pressure;Samples;Min_cycle;Max_cycle;Signal;HPM_P1;HPM_P2
2022/04/09 00:00:55;;;;;;;17.70;2.72;;;;;;;5.55;99.06;100513.63;4998587;28;20030;-66
2022/04/09 00:03:21;;;;;;;11.05;2.35;;;;;;;5.53;99.41;100520.53;4998260;28;20125;-66
2022/04/09 00:05:47;;;;;;;8.73;1.70;;;;;;;5.46;98.62;100524.66;5015842;28;20104;-66
2022/04/09 00:08:13;;;;;;;14.68;2.25;;;;;;;5.35;99.83;100526.91;5015777;28;20040;-67
2022/04/09 00:10:39;;;;;;;11.40;1.55;;;;;;;5.25;100.00;100530.09;5015009;28;20022;-66
2022/04/09 00:13:05;;;;;;;10.60;1.63;;;;;;;5.17;100.00;100528.94;5015901;28;20488;-66
2022/04/09 00:15:30;;;;;;;12.52;1.60;;;;;;;5.09;100.00;100530.38;5015637;28;20030;-66
2022/04/09 00:17:55;;;;;;;11.23;2.28;;;;;;;5.04;100.00;100536.31;5016006;28;20030;-66
2022/04/09 00:20:21;;;;;;;20.48;3.38;;;;;;;5.04;100.00;100545.88;5015306;28;20103;-66
2022/04/09 00:22:46;;;;;;;15.50;2.03;;;;;;;5.04;100.00;100546.75;5015002;28;20474;-66
2022/04/09 00:25:14;;;;;;;16.92;1.80;;;;;;;5.03;100.00;100554.53;5015052;28;20030;-66
2022/04/09 00:27:41;;;;;;;17.50;2.55;;;;;;;5.02;100.00;100558.00;5014935;28;20133;-66
2022/04/09 00:30:09;;;;;;;15.90;2.78;;;;;;;4.99;100.00;100558.78;5014138;28;20045;-66
2022/04/09 00:32:35;;;;;;;21.48;3.00;;;;;;;5.05;100.00;100558.09;4997820;28;20429;-66
2022/04/09 00:35:01;;;;;;;13.32;2.22;;;;;;;5.12;100.00;100564.41;5014426;28;20021;-66
2022/04/09 00:37:27;;;;;;;16.08;2.70;;;;;;;5.17;100.00;100560.25;5015514;28;20033;-67
2022/04/09 00:39:52;;;;;;;18.42;3.47;;;;;;;5.23;100.00;100563.03;5015044;28;20488;-67
2022/04/09 00:42:18;;;;;;;14.10;2.17;;;;;;;5.31;100.00;100565.91;5015041;28;20482;-66
2022/04/09 00:44:44;;;;;;;15.27;3.35;;;;;;;5.36;100.00;100565.22;5015087;28;20037;-67
2022/04/09 00:47:10;;;;;;;13.70;2.33;;;;;;;5.45;100.00;100563.75;4995650;28;20489;-66
2022/04/09 00:49:36;;;;;;;13.95;2.03;;;;;;;5.46;100.00;100570.75;5015286;28;20427;-66
2022/04/09 00:52:03;;;;;;;20.23;3.03;;;;;;;5.44;100.00;100575.94;5014925;28;20083;-66
2022/04/09 00:54:31;;;;;;;19.25;3.03;;;;;;;5.44;100.00;100577.63;5015103;28;20038;-66
2022/04/09 00:57:05;;;;;;;21.13;2.83;;;;;;;5.42;100.00;100574.97;5014352;28;20053;-66
2022/04/09 00:59:33;;;;;;;26.23;5.15;;;;;;;5.45;100.00;100582.03;5015321;28;20037;-66
2022/04/09 01:01:59;;;;;;;19.85;3.25;;;;;;;5.43;99.57;100586.31;5013269;28;20061;-67
2022/04/09 01:04:25;;;;;;;23.92;3.03;;;;;;;5.43;99.40;100589.81;5014217;28;20474;-66
2022/04/09 01:06:51;;;;;;;10.68;1.70;;;;;;;5.42;98.90;100593.25;5014806;28;20034;-66
2022/04/09 01:09:17;;;;;;;19.23;3.05;;;;;;;5.39;97.91;100596.63;5015137;28;20022;-67
2022/04/09 01:11:42;;;;;;;27.75;3.00;;;;;;;5.40;97.67;100598.41;5014729;28;20029;-66
2022/04/09 01:14:10;;;;;;;19.63;3.00;;;;;;;5.42;98.24;100598.47;5013835;28;20343;-67
2022/04/09 01:16:35;;;;;;;17.08;2.53;;;;;;;5.47;96.94;100609.94;4996345;28;20113;-66
2022/04/09 01:19:02;;;;;;;15.93;2.63;;;;;;;5.53;97.74;100636.22;5014288;28;20104;-66
2022/04/09 01:21:28;;;;;;;11.20;1.60;;;;;;;5.38;100.00;100649.63;5014461;28;20046;-66
2022/04/09 01:23:54;;;;;;;10.13;1.80;;;;;;;5.03;100.00;100658.84;4998032;28;20034;-66
2022/04/09 01:26:21;;;;;;;12.45;1.35;;;;;;;4.67;100.00;100652.34;5012769;28;20065;-66
2022/04/09 01:28:47;;;;;;;11.13;3.63;;;;;;;4.46;100.00;100659.34;5013849;28;20037;-66
2022/04/09 01:31:13;;;;;;;6.65;1.80;;;;;;;4.32;100.00;100667.50;5014606;28;20083;-66
2022/04/09 01:33:39;;;;;;;18.20;2.80;;;;;;;4.27;100.00;100673.38;5014378;28;20034;-67
2022/04/09 01:36:05;;;;;;;17.15;2.83;;;;;;;4.35;100.00;100672.88;5014329;28;20029;-66
2022/04/09 01:38:30;;;;;;;23.25;2.70;;;;;;;4.43;100.00;100674.88;5013803;28;20429;-66
2022/04/09 01:40:55;;;;;;;19.38;3.70;;;;;;;4.49;100.00;100672.47;5014153;28;20054;-66
2022/04/09 01:43:21;;;;;;;13.82;2.17;;;;;;;4.54;100.00;100676.16;5014094;28;20026;-67
2022/04/09 01:45:47;;;;;;;11.85;1.90;;;;;;;4.59;100.00;100678.97;5013050;28;20022;-66
2022/04/09 01:48:12;;;;;;;9.23;2.47;;;;;;;4.59;100.00;100669.41;5014117;28;20036;-67
2022/04/09 01:50:38;;;;;;;7.05;1.52;;;;;;;4.58;100.00;100670.22;5014039;28;20516;-66
2022/04/09 01:53:03;;;;;;;13.63;2.03;;;;;;;4.55;100.00;100670.13;5013335;28;20076;-66
2022/04/09 01:55:29;;;;;;;16.55;3.33;;;;;;;4.51;100.00;100673.44;4996187;28;20029;-66
2022/04/09 01:57:54;;;;;;;8.50;1.85;;;;;;;4.49;100.00;100677.69;5014134;28;20084;-67
2022/04/09 02:00:20;;;;;;;7.28;1.70;;;;;;;4.49;100.00;100680.28;5013748;28;20061;-66
2022/04/09 02:02:45;;;;;;;11.55;1.98;;;;;;;4.50;100.00;100682.09;5013709;28;20033;-66
2022/04/09 02:05:12;;;;;;;11.30;1.50;;;;;;;4.51;100.00;100678.66;5006810;28;20649;-66
2022/04/09 02:07:39;;;;;;;15.57;2.03;;;;;;;4.50;100.00;100688.19;5013005;28;20026;-67
2022/04/09 02:10:05;;;;;;;10.57;2.10;;;;;;;4.51;100.00;100695.16;5012864;28;20045;-67
2022/04/09 02:12:35;;;;;;;9.30;2.17;;;;;;;4.53;100.00;100695.22;5013364;28;20030;-66
2022/04/09 02:15:05;;;;;;;20.23;2.13;;;;;;;4.56;100.00;100698.84;5013514;28;20030;-66
2022/04/09 02:17:31;;;;;;;19.67;2.47;;;;;;;4.56;100.00;100708.41;5012727;28;20071;-67
2022/04/09 02:19:56;;;;;;;26.65;2.65;;;;;;;4.55;100.00;100712.69;5013392;28;20509;-67
2022/04/09 02:22:21;;;;;;;12.55;2.72;;;;;;;4.53;100.00;100708.25;5013527;28;20588;-67
2022/04/09 02:24:50;;;;;;;12.35;2.47;;;;;;;4.55;100.00;100711.81;5012525;28;20017;-67
2022/04/09 02:27:15;;;;;;;14.77;3.10;;;;;;;4.59;100.00;100720.66;5013215;28;20026;-67
2022/04/09 02:29:41;;;;;;;25.65;2.83;;;;;;;4.63;100.00;100720.81;5012793;28;20565;-67
2022/04/09 02:32:06;;;;;;;23.20;2.70;;;;;;;4.64;100.00;100730.41;5013499;28;20038;-67
2022/04/09 02:34:32;;;;;;;15.38;2.85;;;;;;;4.71;100.00;100726.34;5013211;28;20033;-67
2022/04/09 02:36:57;;;;;;;15.60;1.95;;;;;;;4.72;100.00;100736.81;5012032;28;20030;-67
2022/04/09 02:39:22;;;;;;;21.13;2.67;;;;;;;4.83;100.00;100739.84;5013235;28;20121;-67
2022/04/09 02:41:52;;;;;;;23.48;2.90;;;;;;;4.89;100.00;100733.97;5013026;28;20025;-67
2022/04/09 02:44:17;;;;;;;9.63;2.83;;;;;;;4.93;100.00;100735.84;5011183;28;20037;-67
2022/04/09 02:46:43;;;;;;;10.52;2.17;;;;;;;4.96;100.00;100730.75;5011045;28;20034;-67
2022/04/09 02:49:09;;;;;;;19.13;2.10;;;;;;;4.95;100.00;100729.00;5012800;28;20055;-67
2022/04/09 02:51:34;;;;;;;17.40;2.65;;;;;;;4.93;100.00;100727.16;5012964;28;20101;-68
2022/04/09 02:53:59;;;;;;;15.98;2.63;;;;;;;4.94;100.00;100736.72;5012736;28;20032;-67
2022/04/09 02:56:25;;;;;;;8.65;2.08;;;;;;;4.92;100.00;100739.28;5012758;28;22083;-67
2022/04/09 02:58:50;;;;;;;15.95;3.10;;;;;;;4.90;100.00;100730.53;5012469;28;20025;-67
2022/04/09 03:01:15;;;;;;;16.33;3.25;;;;;;;4.94;100.00;100732.41;5012520;28;20037;-67
2022/04/09 03:03:41;;;;;;;20.17;2.60;;;;;;;5.03;100.00;100745.81;5012881;28;20026;-67
2022/04/09 03:06:06;;;;;;;13.63;2.28;;;;;;;5.02;100.00;100741.41;4994728;28;20401;-67
2022/04/09 03:08:31;;;;;;;14.13;3.28;;;;;;;5.02;100.00;100748.38;5012724;28;20176;-66
2022/04/09 03:10:57;;;;;;;21.67;2.70;;;;;;;5.09;100.00;100746.84;5012932;28;20494;-67
2022/04/09 03:13:22;;;;;;;12.90;2.40;;;;;;;5.13;100.00;100753.94;5012914;28;20092;-67
2022/04/09 03:15:47;;;;;;;10.60;1.92;;;;;;;5.14;99.89;100755.72;5011727;28;20529;-67
2022/04/09 03:18:13;;;;;;;10.52;1.67;;;;;;;5.17;97.55;100755.88;5012774;28;20028;-67
2022/04/09 03:20:38;;;;;;;17.63;2.00;;;;;;;5.20;97.87;100762.06;5014024;28;20512;-66
2022/04/09 03:23:03;;;;;;;16.40;2.40;;;;;;;5.21;97.37;100763.84;5016464;28;20025;-67
2022/04/09 03:25:29;;;;;;;11.70;1.73;;;;;;;5.33;95.73;100763.44;5016871;28;20084;-67
2022/04/09 03:27:54;;;;;;;11.68;3.65;;;;;;;5.37;96.62;100767.91;5016476;28;20432;-67
2022/04/09 03:30:20;;;;;;;17.92;2.33;;;;;;;5.32;97.35;100761.63;5016670;28;20053;-67
2022/04/09 03:32:45;;;;;;;24.33;4.25;;;;;;;5.33;96.51;100772.94;5016222;28;20022;-66
2022/04/09 03:35:11;;;;;;;21.00;2.55;;;;;;;5.28;97.93;100772.78;5015922;28;20494;-67
2022/04/09 03:37:37;;;;;;;19.10;2.10;;;;;;;5.24;97.77;100783.94;5016352;28;20088;-67
2022/04/09 03:40:04;;;;;;;20.17;2.47;;;;;;;5.22;98.04;100783.00;5016797;28;20033;-67
2022/04/09 03:42:30;;;;;;;23.63;2.15;;;;;;;5.21;97.83;100786.47;5016056;28;20430;-67
2022/04/09 03:44:56;;;;;;;14.90;2.80;;;;;;;5.23;96.77;100782.16;5016224;28;20022;-67
2022/04/09 03:47:21;;;;;;;14.52;1.75;;;;;;;5.32;96.34;100792.06;5015718;28;20057;-67
2022/04/09 03:49:47;;;;;;;17.92;2.33;;;;;;;5.31;96.57;100791.16;5016292;28;20371;-67
2022/04/09 03:52:13;;;;;;;12.02;1.92;;;;;;;5.38;96.74;100790.53;4998280;28;20022;-67
2022/04/09 03:54:38;;;;;;;14.98;2.00;;;;;;;5.40;96.83;100794.13;5015889;28;20025;-67
2022/04/09 03:57:04;;;;;;;12.65;2.10;;;;;;;5.40;97.46;100806.28;4998427;28;20108;-67
2022/04/09 03:59:30;;;;;;;9.52;2.05;;;;;;;5.36;98.47;100800.06;5016341;28;20026;-67
2022/04/09 04:01:55;;;;;;;22.00;2.80;;;;;;;5.38;100.00;100805.31;5014504;28;20030;-66
2022/04/09 04:04:21;;;;;;;14.07;2.33;;;;;;;5.39;100.00;100814.94;5015542;28;20033;-67
2022/04/09 04:06:48;;;;;;;20.02;2.88;;;;;;;5.37;100.00;100821.81;5015757;28;20030;-67
2022/04/09 04:09:16;;;;;;;19.77;2.95;;;;;;;5.33;100.00;100827.75;5015546;28;20174;-67
2022/04/09 04:11:44;;;;;;;20.38;3.45;;;;;;;5.33;100.00;100826.03;5015518;28;20033;-67
2022/04/09 04:14:10;;;;;;;13.45;2.58;;;;;;;5.31;100.00;100827.69;5016081;28;20083;-67
2022/04/09 04:16:35;;;;;;;12.63;2.38;;;;;;;5.31;100.00;100830.31;5015503;28;20120;-67
2022/04/09 04:19:01;;;;;;;23.38;2.50;;;;;;;5.37;100.00;100835.75;5015546;28;20037;-67
2022/04/09 04:21:27;;;;;;;12.98;1.60;;;;;;;5.42;99.53;100840.25;5015487;28;20041;-67
2022/04/09 04:23:52;;;;;;;12.70;1.85;;;;;;;5.39;99.54;100839.31;5015625;28;20416;-67
2022/04/09 04:26:17;;;;;;;9.63;2.30;;;;;;;5.42;98.65;100848.09;5015973;28;20025;-67
2022/04/09 04:28:42;;;;;;;14.45;2.33;;;;;;;5.40;98.56;100843.69;4997865;28;20029;-68
2022/04/09 04:31:08;;;;;;;13.20;2.03;;;;;;;5.39;98.91;100857.56;5015252;28;20029;-66
2022/04/09 04:33:34;;;;;;;16.33;2.08;;;;;;;5.38;98.58;100854.91;5014191;28;20033;-67
2022/04/09 04:35:59;;;;;;;16.90;2.42;;;;;;;5.35;99.35;100849.56;4997972;28;20109;-67
2022/04/09 04:38:25;;;;;;;10.68;1.90;;;;;;;5.35;99.02;100858.28;5015441;28;20490;-67
2022/04/09 04:40:51;;;;;;;9.77;2.78;;;;;;;5.36;98.50;100854.84;5014830;28;20026;-67
2022/04/09 04:43:16;;;;;;;11.88;2.10;;;;;;;5.39;98.41;100851.47;5014983;28;20026;-67
2022/04/09 04:45:42;;;;;;;16.67;3.25;;;;;;;5.37;98.12;100855.72;5014345;28;20030;-67
2022/04/09 04:48:07;;;;;;;13.15;2.17;;;;;;;5.34;98.71;100860.84;5014169;28;20037;-67
2022/04/09 04:50:32;;;;;;;17.88;2.85;;;;;;;5.34;99.03;100863.44;5015152;28;20473;-67
2022/04/09 04:52:58;;;;;;;8.55;2.38;;;;;;;5.32;99.15;100859.91;5014666;28;20034;-67
2022/04/09 04:55:23;;;;;;;13.10;3.05;;;;;;;5.35;98.95;100866.09;5013777;28;20038;-67
2022/04/09 04:57:51;;;;;;;9.82;2.13;;;;;;;5.43;99.10;100870.75;5014743;28;20033;-66
2022/04/09 05:00:22;;;;;;;17.30;2.40;;;;;;;5.51;98.59;100877.16;5014721;28;20433;-67
2022/04/09 05:02:48;;;;;;;12.55;1.98;;;;;;;5.61;98.80;100889.69;5014158;28;20053;-67
2022/04/09 05:05:13;;;;;;;9.30;1.95;;;;;;;5.72;98.47;100904.06;5015061;28;20049;-67
2022/04/09 05:07:44;;;;;;;13.70;2.08;;;;;;;5.73;98.69;100900.59;5014808;28;20531;-67
2022/04/09 05:10:11;;;;;;;13.75;2.05;;;;;;;5.67;98.91;100905.59;5014555;28;20029;-67
2022/04/09 05:12:38;;;;;;;14.10;1.63;;;;;;;5.58;99.32;100903.50;5014298;28;20040;-67
2022/04/09 05:15:05;;;;;;;6.30;1.33;;;;;;;5.53;95.82;100904.19;5014192;28;20054;-67
2022/04/09 05:17:31;;;;;;;3.72;1.02;;;;;;;5.47;95.18;100904.84;5014355;28;20025;-67
2022/04/09 05:19:56;;;;;;;8.63;1.20;;;;;;;5.38;95.60;100902.75;5014479;28;20058;-67
2022/04/09 05:22:22;;;;;;;8.95;1.13;;;;;;;5.38;95.73;100907.97;5014193;28;20394;-67
2022/04/09 05:24:47;;;;;;;10.88;1.80;;;;;;;5.38;95.09;100913.19;5014306;28;20037;-67
2022/04/09 05:27:13;;;;;;;9.10;1.20;;;;;;;5.43;95.73;100929.03;5012767;28;20033;-67
2022/04/09 05:29:38;;;;;;;12.98;2.28;;;;;;;5.51;96.48;100929.34;5014649;28;20033;-67
2022/04/09 05:32:05;;;;;;;8.82;1.48;;;;;;;5.58;96.56;100931.34;5014160;28;20022;-67
2022/04/09 05:34:31;;;;;;;5.72;1.10;;;;;;;5.57;94.94;100947.84;5012741;28;21480;-67
2022/04/09 05:36:56;;;;;;;8.18;1.42;;;;;;;5.38;99.43;100951.44;5013894;28;20021;-66
2022/04/09 05:39:21;;;;;;;9.57;1.63;;;;;;;5.16;100.00;100961.03;5014396;28;20048;-67
2022/04/09 05:41:47;;;;;;;11.60;1.85;;;;;;;4.96;100.00;100967.16;5012804;28;20363;-67
2022/04/09 05:44:12;;;;;;;12.70;1.70;;;;;;;4.76;100.00;100966.31;5013121;28;20056;-67
2022/04/09 05:46:37;;;;;;;9.38;1.70;;;;;;;4.62;100.00;100974.44;5014427;28;20033;-67
2022/04/09 05:49:03;;;;;;;8.55;1.50;;;;;;;4.15;100.00;100961.16;5013956;28;20029;-67
2022/04/09 05:51:28;;;;;;;8.95;2.55;;;;;;;3.76;100.00;100965.41;5013360;28;20037;-67
2022/04/09 05:53:55;;;;;;;11.43;2.10;;;;;;;3.56;100.00;100985.34;5012812;28;20026;-67
2022/04/09 05:56:21;;;;;;;14.10;2.13;;;;;;;3.53;100.00;100983.47;5012684;28;20029;-66
2022/04/09 05:58:46;;;;;;;15.23;1.92;;;;;;;3.50;100.00;100992.03;5013721;28;20426;-66
2022/04/09 06:01:11;;;;;;;14.45;2.22;;;;;;;3.54;100.00;100980.03;5012198;28;20044;-67
2022/04/09 06:03:38;;;;;;;15.85;1.85;;;;;;;3.56;100.00;100990.53;5012225;28;20061;-66
2022/04/09 06:06:04;;;;;;;19.50;3.03;;;;;;;3.63;100.00;100984.78;5013334;28;20029;-66
2022/04/09 06:08:31;;;;;;;18.83;3.22;;;;;;;3.72;100.00;100996.50;5013617;28;20427;-66
2022/04/09 06:10:56;;;;;;;10.57;2.60;;;;;;;3.88;100.00;101005.06;5013627;28;20433;-66
2022/04/09 06:13:21;;;;;;;13.60;3.10;;;;;;;4.04;100.00;101004.94;5012921;28;20030;-67
2022/04/09 06:15:47;;;;;;;11.82;3.05;;;;;;;4.26;100.00;101007.59;5013069;28;20440;-67
2022/04/09 06:18:12;;;;;;;15.25;3.25;;;;;;;4.49;100.00;101013.81;5013162;28;20030;-66
2022/04/09 06:20:37;;;;;;;18.48;3.30;;;;;;;4.59;100.00;101012.53;5012830;28;20045;-66
2022/04/09 06:23:04;;;;;;;16.08;3.15;;;;;;;4.73;100.00;101014.91;5016205;28;20381;-66
2022/04/09 06:25:29;;;;;;;22.42;4.57;;;;;;;4.87;100.00;101014.59;5013277;28;20108;-68
2022/04/09 06:27:55;;;;;;;14.05;2.83;;;;;;;4.94;100.00;101013.13;5013135;28;20453;-67
2022/04/09 06:30:20;;;;;;;15.02;2.95;;;;;;;5.05;100.00;101023.19;5013073;28;20083;-67
2022/04/09 06:32:45;;;;;;;16.83;4.05;;;;;;;5.15;100.00;101028.78;5012582;28;20014;-67
2022/04/09 06:35:11;;;;;;;20.58;3.85;;;;;;;5.19;100.00;101022.88;5013681;28;20026;-67
2022/04/09 06:37:38;;;;;;;15.70;2.97;;;;;;;5.21;100.00;101024.72;5012624;28;20164;-67
2022/04/09 06:40:05;;;;;;;14.20;3.08;;;;;;;5.20;100.00;101032.50;5010686;28;20034;-67
2022/04/09 06:42:31;;;;;;;29.55;5.07;;;;;;;5.20;100.00;101040.31;4994823;28;20112;-67
2022/04/09 06:44:58;;;;;;;20.15;3.40;;;;;;;5.26;100.00;101043.16;5009757;28;20537;-67
2022/04/09 06:47:23;;;;;;;21.83;3.05;;;;;;;5.22;100.00;101052.59;5008645;28;20025;-66
2022/04/09 06:49:48;;;;;;;20.35;3.78;;;;;;;5.25;100.00;101046.63;5011894;28;20026;-67
2022/04/09 06:52:14;;;;;;;25.30;3.53;;;;;;;5.31;100.00;101061.63;5012477;28;20030;-67
2022/04/09 06:54:40;;;;;;;16.27;3.47;;;;;;;5.20;100.00;101061.19;5014482;28;20026;-67
2022/04/09 06:57:06;;;;;;;17.55;3.75;;;;;;;5.10;100.00;101069.44;5012671;28;20119;-67
2022/04/09 06:59:31;;;;;;;12.98;2.58;;;;;;;5.04;100.00;101081.38;5012933;28;20053;-67
2022/04/09 07:01:56;;;;;;;22.90;3.13;;;;;;;5.01;100.00;101090.81;5013171;28;20135;-67
2022/04/09 07:04:22;;;;;;;17.35;2.95;;;;;;;4.67;100.00;101090.22;4993616;28;20036;-69
2022/04/09 07:06:47;;;;;;;15.77;2.25;;;;;;;4.35;100.00;101088.78;5010183;28;20021;-67
2022/04/09 07:09:13;;;;;;;11.88;2.72;;;;;;;4.29;100.00;101094.59;5008490;28;20417;-66
2022/04/09 07:11:38;;;;;;;7.05;2.38;;;;;;;4.33;100.00;101096.53;5009800;28;20057;-67
2022/04/09 07:14:03;;;;;;;11.43;2.65;;;;;;;4.43;100.00;101102.16;5010885;28;20048;-68
2022/04/09 07:16:28;;;;;;;15.07;2.60;;;;;;;4.50;100.00;101099.91;5009758;28;20099;-67
2022/04/09 07:18:55;;;;;;;11.80;1.90;;;;;;;4.62;100.00;101096.06;5011747;28;20104;-67
2022/04/09 07:21:20;;;;;;;10.38;2.65;;;;;;;4.72;100.00;101106.97;5000755;28;20037;-67
2022/04/09 07:23:45;;;;;;;8.15;1.90;;;;;;;4.88;100.00;101099.81;5010779;28;20441;-67
2022/04/09 07:26:11;;;;;;;7.93;1.85;;;;;;;5.11;100.00;101094.72;5013659;28;20073;-66
2022/04/09 07:28:36;;;;;;;15.30;3.47;;;;;;;5.36;100.00;101107.09;5012080;28;20355;-67
2022/04/09 07:31:01;;;;;;;14.30;1.70;;;;;;;5.53;100.00;101110.38;5010951;28;20085;-67
2022/04/09 07:33:27;;;;;;;12.25;2.58;;;;;;;5.71;100.00;101111.16;5011395;28;20017;-67
2022/04/09 07:35:53;;;;;;;17.45;2.63;;;;;;;5.79;100.00;101108.81;4990762;28;20034;-67
2022/04/09 07:38:19;;;;;;;13.02;2.72;;;;;;;5.83;100.00;101120.28;5011628;28;20088;-67
2022/04/09 07:40:44;;;;;;;17.38;2.10;;;;;;;5.82;100.00;101115.88;5009348;28;20021;-66
2022/04/09 07:43:09;;;;;;;7.75;1.73;;;;;;;5.82;100.00;101118.50;5012827;28;20433;-67
2022/04/09 07:45:35;;;;;;;7.90;1.60;;;;;;;5.84;100.00;101119.47;5011842;28;20530;-70
2022/04/09 07:48:01;;;;;;;11.55;1.73;;;;;;;5.91;100.00;101124.09;5011496;28;20026;-70
2022/04/09 07:50:28;;;;;;;5.28;1.10;;;;;;;5.92;100.00;101128.50;5012473;28;20110;-70
2022/04/09 07:52:54;;;;;;;12.02;1.35;;;;;;;5.90;100.00;101127.53;5011922;28;20021;-69
2022/04/09 07:55:19;;;;;;;6.97;1.80;;;;;;;6.01;100.00;101126.28;5011138;28;20084;-70
2022/04/09 07:57:47;;;;;;;6.57;1.30;;;;;;;6.19;99.54;101140.91;5011642;28;20470;-70
2022/04/09 08:00:14;;;;;;;8.57;1.50;;;;;;;6.07;100.00;101147.41;5001744;28;20033;-70
2022/04/09 08:02:39;;;;;;;16.23;2.63;;;;;;;5.90;100.00;101170.22;5012328;28;20029;-70
2022/04/09 08:05:05;;;;;;;12.25;1.50;;;;;;;5.72;100.00;101178.22;5012637;28;20026;-70
2022/04/09 08:07:30;;;;;;;8.40;1.10;;;;;;;5.42;100.00;101187.34;4995842;28;20022;-71
2022/04/09 08:09:55;;;;;;;8.32;1.08;;;;;;;4.97;100.00;101212.34;5014665;28;20481;-70
2022/04/09 08:12:21;;;;;;;3.65;1.02;;;;;;;4.45;100.00;101194.31;5016267;28;20022;-70
2022/04/09 08:14:46;;;;;;;12.27;1.80;;;;;;;4.13;100.00;101212.78;5015627;28;20029;-69
2022/04/09 08:17:12;;;;;;;10.40;1.27;;;;;;;3.93;100.00;101223.94;5016089;28;20032;-71
2022/04/09 08:19:37;;;;;;;7.00;1.83;;;;;;;3.74;100.00;101224.72;5015281;28;20041;-69
2022/04/09 08:22:04;;;;;;;10.05;2.00;;;;;;;3.53;100.00;101217.63;4997965;28;20061;-69
2022/04/09 08:24:30;;;;;;;9.00;1.33;;;;;;;3.44;100.00;101222.34;5015326;28;20072;-69
2022/04/09 08:26:55;;;;;;;3.30;0.88;;;;;;;3.33;100.00;101214.88;5015018;28;20473;-69
2022/04/09 08:29:20;;;;;;;10.20;1.52;;;;;;;3.31;100.00;101210.41;5015190;28;20520;-69
2022/04/09 08:31:47;;;;;;;10.02;1.20;;;;;;;3.33;100.00;101212.28;5015113;28;20068;-69
2022/04/09 08:34:17;;;;;;;5.03;1.23;;;;;;;3.42;100.00;101208.38;5015216;28;20152;-69
2022/04/09 08:36:43;;;;;;;4.38;1.17;;;;;;;3.48;100.00;101198.28;5008338;28;20034;-69
2022/04/09 08:39:08;;;;;;;14.98;1.48;;;;;;;3.56;100.00;101201.28;5015893;28;20030;-69
2022/04/09 08:41:40;;;;;;;13.20;1.85;;;;;;;3.67;100.00;101202.72;5015039;28;20025;-69
2022/04/09 08:44:06;;;;;;;5.53;1.50;;;;;;;3.86;100.00;101207.13;5002249;28;20485;-69
2022/04/09 08:46:34;;;;;;;9.77;1.85;;;;;;;4.14;100.00;101198.06;5014483;28;20445;-69
2022/04/09 08:49:05;;;;;;;11.75;2.00;;;;;;;4.49;100.00;101198.84;5017903;28;20029;-69
2022/04/09 08:51:31;;;;;;;12.10;2.47;;;;;;;4.81;100.00;101209.88;5001550;28;20037;-70
2022/04/09 08:54:00;;;;;;;17.45;3.05;;;;;;;5.43;100.00;101208.28;5014048;28;20109;-70
2022/04/09 08:56:26;;;;;;;13.75;3.92;;;;;;;6.03;100.00;101213.44;5014036;28;20017;-70
2022/04/09 08:58:51;;;;;;;11.95;2.60;;;;;;;6.41;100.00;101216.69;5014411;28;20371;-69
2022/04/09 09:01:19;;;;;;;13.45;2.65;;;;;;;6.67;100.00;101219.44;5011969;28;20025;-70
2022/04/09 09:03:45;;;;;;;9.35;2.35;;;;;;;6.83;100.00;101214.81;5014534;28;20052;-69
2022/04/09 09:06:28;;;;;;;8.00;2.50;;;;;;;6.85;100.00;101223.59;5013717;28;20026;-70
2022/04/09 09:08:58;;;;;;;14.02;2.42;;;;;;;6.86;100.00;101225.38;5013617;28;20108;-70
2022/04/09 09:11:24;;;;;;;5.93;2.33;;;;;;;6.75;100.00;101223.25;5016282;28;20034;-70
2022/04/09 09:13:52;;;;;;;16.48;2.95;;;;;;;6.65;100.00;101226.34;5012670;28;20101;-70
2022/04/09 09:16:29;;;;;;;10.45;2.28;;;;;;;6.62;100.00;101231.47;5010171;28;20029;-70
2022/04/09 09:19:02;;;;;;;13.15;3.40;;;;;;;6.57;100.00;101238.22;5026483;28;20056;-70
2022/04/09 09:21:27;;;;;;;17.23;2.72;;;;;;;6.51;100.00;101243.19;5016248;28;20045;-70
2022/04/09 09:24:12;;;;;;;16.27;2.28;;;;;;;6.44;100.00;101238.56;5015412;28;20359;-70
2022/04/09 09:26:38;;;;;;;8.95;2.78;;;;;;;6.46;100.00;101244.75;5007280;28;20029;-71
2022/04/09 09:29:04;;;;;;;8.95;2.70;;;;;;;6.52;100.00;101245.00;5023440;28;20028;-67
2022/04/09 09:31:46;;;;;;;19.75;2.30;;;;;;;6.61;100.00;101244.47;5012618;28;20520;-68
2022/04/09 09:34:16;;;;;;;12.93;2.92;;;;;;;6.76;100.00;101250.28;5014179;28;20493;-69
2022/04/09 09:36:43;;;;;;;8.27;2.42;;;;;;;6.91;100.00;101245.63;5009674;28;20034;-69
2022/04/09 09:39:10;;;;;;;13.25;2.35;;;;;;;7.06;100.00;101250.56;4989769;28;20137;-69
2022/04/09 09:41:56;;;;;;;9.45;2.55;;;;;;;7.32;100.00;101245.38;5011339;28;20600;-67
2022/04/09 09:44:23;;;;;;;13.48;2.47;;;;;;;7.42;96.50;101247.53;5021786;28;20482;-67
2022/04/09 09:46:49;;;;;;;7.20;2.53;;;;;;;7.53;95.48;101244.41;5013303;28;20034;-67
2022/04/09 09:49:19;;;;;;;11.55;2.80;;;;;;;7.46;94.92;101245.91;5015396;28;20429;-69
2022/04/09 09:52:02;;;;;;;14.38;2.60;;;;;;;7.53;99.12;101252.25;5006920;28;20096;-71
2022/04/09 09:54:28;;;;;;;13.33;2.93;;;;;;;7.63;96.99;101272.69;5018588;28;20022;-69
2022/04/09 09:56:53;;;;;;;8.20;2.63;;;;;;;7.74;96.47;101273.06;5017495;28;20030;-68
2022/04/09 09:59:21;;;;;;;13.75;2.38;;;;;;;7.74;94.54;101278.31;5012833;28;20041;-70
2022/04/09 10:01:49;;;;;;;7.65;0.93;;;;;;;7.72;92.93;101280.88;5014584;28;20036;-69
2022/04/09 10:04:14;;;;;;;3.95;1.00;;;;;;;7.64;92.44;101271.84;5010562;28;20038;-69
2022/04/09 10:06:42;;;;;;;12.80;1.52;;;;;;;7.58;91.97;101276.84;5011397;28;20037;-69
2022/04/09 10:09:08;;;;;;;8.77;1.30;;;;;;;7.46;92.86;101281.66;5012249;28;20014;-70
2022/04/09 10:11:49;;;;;;;5.70;1.48;;;;;;;7.54;94.52;101285.44;5017504;28;20033;-69
2022/04/09 10:14:20;;;;;;;9.80;2.13;;;;;;;7.68;95.53;101286.84;5002415;28;21438;-69
2022/04/09 10:16:48;;;;;;;8.98;2.30;;;;;;;7.89;94.73;101283.19;5012750;28;20026;-69
2022/04/09 10:19:16;;;;;;;5.45;1.85;;;;;;;8.00;88.86;101281.81;4993990;28;20038;-70
2022/04/09 10:21:46;;;;;;;5.32;1.65;;;;;;;7.96;89.84;101276.44;4993717;28;20133;-69
2022/04/09 10:24:20;;;;;;;13.20;3.35;;;;;;;8.12;89.64;101269.97;5015290;28;20025;-69
2022/04/09 10:26:46;;;;;;;8.35;2.10;;;;;;;8.39;88.26;101281.34;4996541;28;20374;-70
2022/04/09 10:29:11;;;;;;;4.47;1.60;;;;;;;8.47;87.46;101283.41;5012873;28;20029;-72
2022/04/09 10:31:41;;;;;;;7.05;1.77;;;;;;;8.61;88.29;101292.56;4993600;28;20061;-71
2022/04/09 10:34:10;;;;;;;8.85;1.75;;;;;;;8.57;88.32;101296.84;4993956;28;20127;-72
2022/04/09 10:36:44;;;;;;;9.85;1.67;;;;;;;8.54;86.67;101311.59;4994417;28;20040;-72
2022/04/09 10:39:26;;;;;;;8.68;1.42;;;;;;;8.43;88.91;101333.06;5012344;28;20496;-71
2022/04/09 10:41:57;;;;;;;7.10;1.80;;;;;;;8.19;90.19;101330.53;5010113;28;20053;-71
2022/04/09 10:44:51;;;;;;;7.18;1.60;;;;;;;7.82;91.32;101333.59;5012676;28;20026;-71
2022/04/09 10:47:19;;;;;;;10.00;1.70;;;;;;;7.54;92.78;101348.28;5010619;28;20091;-71
2022/04/09 10:50:16;;;;;;;7.90;1.40;;;;;;;7.18;93.23;101362.66;5010701;28;20022;-70
2022/04/09 10:52:41;;;;;;;11.13;1.48;;;;;;;6.99;92.96;101349.72;4961372;28;20065;-71
2022/04/09 10:55:09;;;;;;;11.20;1.98;;;;;;;6.90;94.07;101347.63;5013215;28;20054;-71
2022/04/09 10:57:52;;;;;;;5.10;1.40;;;;;;;6.86;94.81;101353.56;5013039;28;20104;-69
2022/04/09 11:00:20;;;;;;;10.48;1.30;;;;;;;6.82;96.04;101354.25;4990523;28;20029;-70
2022/04/09 11:03:04;;;;;;;7.53;1.33;;;;;;;6.78;96.35;101353.25;5012678;28;20088;-71
2022/04/09 11:05:29;;;;;;;9.13;1.17;;;;;;;6.99;97.53;101350.59;5009535;28;20359;-69
2022/04/09 11:08:08;;;;;;;3.60;1.40;;;;;;;7.32;96.60;101351.84;5013146;28;20083;-69
2022/04/09 11:10:34;;;;;;;5.93;1.10;;;;;;;7.85;92.29;101346.78;5013206;28;20037;-72
2022/04/09 11:13:00;;;;;;;12.45;1.50;;;;;;;8.21;92.82;101343.69;5012096;28;20466;-71
2022/04/09 11:15:27;;;;;;;10.60;1.20;;;;;;;9.08;87.97;101352.66;4992295;28;20021;-72
2022/04/09 11:18:02;;;;;;;6.30;0.90;;;;;;;9.55;81.80;101347.94;5011000;28;20052;-71
2022/04/09 11:20:33;;;;;;;8.90;1.17;;;;;;;9.87;79.70;101341.78;5011667;28;20052;-72